sensor_id;sensor_type;location;lat;lon;timestamp;P1;durP1;ratioP1;P2;durP2;ratioP2
40781;SDS011;26493;51.938;7.626;2022-09-20T00:00:47;20.13;;;8.65;;
40781;SDS011;26493;51.938;7.626;2022-09-20T00:03:14;17.73;;;8.15;;
40781;SDS011;26493;51.938;7.626;2022-09-20T00:05:41;16.95;;;8.35;;
40781;SDS011;26493;51.938;7.626;2022-09-20T00:08:09;18.98;;;7.72;;
40781;SDS011;26493;51.938;7.626;2022-09-20T00:10:36;16.20;;;7.82;;
40781;SDS011;26493;51.938;7.626;2022-09-20T00:13:03;24.92;;;9.05;;
40781;SDS011;26493;51.938;7.626;2022-09-20T00:15:30;19.42;;;8.20;;
40781;SDS011;26493;51.938;7.626;2022-09-20T00:17:56;21.50;;;8.50;;
40781;SDS011;26493;51.938;7.626;2022-09-20T00:20:22;20.38;;;8.50;;
40781;SDS011;26493;51.938;7.626;2022-09-20T00:22:48;18.63;;;8.55;;
40781;SDS011;26493;51.938;7.626;2022-09-20T00:25:18;20.98;;;8.50;;
40781;SDS011;26493;51.938;7.626;2022-09-20T00:27:44;21.77;;;8.63;;
40781;SDS011;26493;51.938;7.626;2022-09-20T00:30:11;19.48;;;8.52;;
40781;SDS011;26493;51.938;7.626;2022-09-20T00:32:38;19.73;;;8.27;;
40781;SDS011;26493;51.938;7.626;2022-09-20T00:35:05;19.35;;;8.70;;
40781;SDS011;26493;51.938;7.626;2022-09-20T00:37:38;17.92;;;8.65;;
40781;SDS011;26493;51.938;7.626;2022-09-20T00:40:05;19.60;;;8.52;;
40781;SDS011;26493;51.938;7.626;2022-09-20T00:42:32;21.63;;;8.50;;
40781;SDS011;26493;51.938;7.626;2022-09-20T00:44:58;20.38;;;9.02;;
40781;SDS011;26493;51.938;7.626;2022-09-20T00:52:42;19.67;;;9.25;;
40781;SDS011;26493;51.938;7.626;2022-09-20T00:55:10;22.73;;;9.40;;
40781;SDS011;26493;51.938;7.626;2022-09-20T00:57:36;22.35;;;9.68;;
40781;SDS011;26493;51.938;7.626;2022-09-20T01:00:06;18.95;;;9.63;;
40781;SDS011;26493;51.938;7.626;2022-09-20T01:02:32;16.90;;;8.50;;
40781;SDS011;26493;51.938;7.626;2022-09-20T01:04:59;23.45;;;9.77;;
40781;SDS011;26493;51.938;7.626;2022-09-20T01:07:25;18.70;;;8.93;;
40781;SDS011;26493;51.938;7.626;2022-09-20T01:09:52;21.70;;;9.00;;
40781;SDS011;26493;51.938;7.626;2022-09-20T01:12:19;26.25;;;9.57;;
40781;SDS011;26493;51.938;7.626;2022-09-20T01:14:47;17.38;;;8.30;;
40781;SDS011;26493;51.938;7.626;2022-09-20T01:17:13;16.75;;;8.55;;
40781;SDS011;26493;51.938;7.626;2022-09-20T01:22:25;18.10;;;8.32;;
40781;SDS011;26493;51.938;7.626;2022-09-20T01:25:08;19.25;;;8.93;;
40781;SDS011;26493;51.938;7.626;2022-09-20T01:30:11;17.58;;;9.38;;
40781;SDS011;26493;51.938;7.626;2022-09-20T01:35:30;21.48;;;8.60;;
40781;SDS011;26493;51.938;7.626;2022-09-20T01:38:14;18.38;;;8.57;;
40781;SDS011;26493;51.938;7.626;2022-09-20T01:43:34;17.88;;;7.82;;
40781;SDS011;26493;51.938;7.626;2022-09-20T01:46:26;19.27;;;7.50;;
40781;SDS011;26493;51.938;7.626;2022-09-20T01:48:47;15.63;;;8.20;;
40781;SDS011;26493;51.938;7.626;2022-09-20T01:52:07;25.58;;;9.30;;
40781;SDS011;26493;51.938;7.626;2022-09-20T02:03:02;22.08;;;8.77;;
40781;SDS011;26493;51.938;7.626;2022-09-20T02:10:08;20.55;;;8.55;;
40781;SDS011;26493;51.938;7.626;2022-09-20T02:13:03;20.40;;;8.38;;
40781;SDS011;26493;51.938;7.626;2022-09-20T02:36:34;16.27;;;8.43;;
40781;SDS011;26493;51.938;7.626;2022-09-20T02:39:16;19.85;;;9.10;;
40781;SDS011;26493;51.938;7.626;2022-09-20T02:41:53;20.15;;;9.38;;
40781;SDS011;26493;51.938;7.626;2022-09-20T02:46:54;18.00;;;8.85;;
40781;SDS011;26493;51.938;7.626;2022-09-20T02:55:04;18.38;;;8.82;;
40781;SDS011;26493;51.938;7.626;2022-09-20T02:59:59;18.88;;;8.48;;
40781;SDS011;26493;51.938;7.626;2022-09-20T03:07:42;17.65;;;8.85;;
40781;SDS011;26493;51.938;7.626;2022-09-20T03:12:41;18.92;;;8.70;;
40781;SDS011;26493;51.938;7.626;2022-09-20T03:26:06;17.15;;;8.20;;
40781;SDS011;26493;51.938;7.626;2022-09-20T03:33:49;18.98;;;8.60;;
40781;SDS011;26493;51.938;7.626;2022-09-20T03:47:02;17.27;;;8.38;;
40781;SDS011;26493;51.938;7.626;2022-09-20T03:52:03;18.92;;;9.10;;
40781;SDS011;26493;51.938;7.626;2022-09-20T03:54:38;19.95;;;9.00;;
40781;SDS011;26493;51.938;7.626;2022-09-20T03:57:22;17.42;;;8.70;;
40781;SDS011;26493;51.938;7.626;2022-09-20T04:02:22;19.48;;;9.23;;
40781;SDS011;26493;51.938;7.626;2022-09-20T04:04:59;18.67;;;8.88;;
40781;SDS011;26493;51.938;7.626;2022-09-20T04:12:48;21.73;;;9.82;;
40781;SDS011;26493;51.938;7.626;2022-09-20T04:15:25;19.85;;;9.30;;
40781;SDS011;26493;51.938;7.626;2022-09-20T04:17:59;19.10;;;10.40;;
40781;SDS011;26493;51.938;7.626;2022-09-20T04:20:48;20.88;;;10.00;;
40781;SDS011;26493;51.938;7.626;2022-09-20T04:26:00;21.30;;;10.00;;
40781;SDS011;26493;51.938;7.626;2022-09-20T04:28:31;19.73;;;9.52;;
40781;SDS011;26493;51.938;7.626;2022-09-20T04:31:01;22.73;;;9.57;;
40781;SDS011;26493;51.938;7.626;2022-09-20T04:33:29;19.77;;;9.23;;
40781;SDS011;26493;51.938;7.626;2022-09-20T04:36:23;18.13;;;9.60;;
40781;SDS011;26493;51.938;7.626;2022-09-20T04:52:42;21.05;;;11.00;;
40781;SDS011;26493;51.938;7.626;2022-09-20T04:55:22;22.15;;;9.93;;
40781;SDS011;26493;51.938;7.626;2022-09-20T05:00:21;24.40;;;10.50;;
40781;SDS011;26493;51.938;7.626;2022-09-20T05:05:47;23.75;;;10.82;;
40781;SDS011;26493;51.938;7.626;2022-09-20T05:16:02;19.52;;;10.23;;
40781;SDS011;26493;51.938;7.626;2022-09-20T05:18:43;20.75;;;10.43;;
40781;SDS011;26493;51.938;7.626;2022-09-20T05:26:17;21.52;;;10.68;;
40781;SDS011;26493;51.938;7.626;2022-09-20T05:28:58;23.58;;;11.27;;
40781;SDS011;26493;51.938;7.626;2022-09-20T05:31:29;24.05;;;12.07;;
40781;SDS011;26493;51.938;7.626;2022-09-20T05:55:19;23.83;;;10.70;;
40781;SDS011;26493;51.938;7.626;2022-09-20T06:00:20;20.35;;;10.95;;
40781;SDS011;26493;51.938;7.626;2022-09-20T06:23:30;20.65;;;10.77;;
40781;SDS011;26493;51.938;7.626;2022-09-20T06:26:16;18.38;;;10.45;;
40781;SDS011;26493;51.938;7.626;2022-09-20T06:28:48;19.90;;;10.15;;
40781;SDS011;26493;51.938;7.626;2022-09-20T06:31:15;23.65;;;10.23;;
40781;SDS011;26493;51.938;7.626;2022-09-20T06:33:48;23.25;;;12.30;;
40781;SDS011;26493;51.938;7.626;2022-09-20T06:36:18;19.70;;;9.85;;
40781;SDS011;26493;51.938;7.626;2022-09-20T06:42:08;20.52;;;9.63;;
40781;SDS011;26493;51.938;7.626;2022-09-20T06:44:35;21.85;;;10.57;;
40781;SDS011;26493;51.938;7.626;2022-09-20T06:47:10;19.60;;;9.93;;
40781;SDS011;26493;51.938;7.626;2022-09-20T06:49:37;20.83;;;10.25;;
40781;SDS011;26493;51.938;7.626;2022-09-20T06:52:05;22.70;;;9.40;;
40781;SDS011;26493;51.938;7.626;2022-09-20T06:54:32;21.23;;;10.57;;
40781;SDS011;26493;51.938;7.626;2022-09-20T06:56:59;18.23;;;9.82;;
40781;SDS011;26493;51.938;7.626;2022-09-20T06:59:27;20.63;;;9.40;;
40781;SDS011;26493;51.938;7.626;2022-09-20T07:01:53;17.90;;;9.68;;
40781;SDS011;26493;51.938;7.626;2022-09-20T07:04:19;17.13;;;8.90;;
40781;SDS011;26493;51.938;7.626;2022-09-20T07:06:50;22.17;;;8.60;;
40781;SDS011;26493;51.938;7.626;2022-09-20T07:09:17;25.38;;;9.25;;
40781;SDS011;26493;51.938;7.626;2022-09-20T07:11:43;18.13;;;8.20;;
40781;SDS011;26493;51.938;7.626;2022-09-20T07:14:10;17.13;;;8.50;;
40781;SDS011;26493;51.938;7.626;2022-09-20T07:16:36;18.60;;;9.50;;
40781;SDS011;26493;51.938;7.626;2022-09-20T07:19:03;18.50;;;10.05;;
40781;SDS011;26493;51.938;7.626;2022-09-20T07:21:30;20.48;;;9.90;;
40781;SDS011;26493;51.938;7.626;2022-09-20T07:23:56;18.42;;;10.07;;
40781;SDS011;26493;51.938;7.626;2022-09-20T07:28:51;22.50;;;10.50;;
40781;SDS011;26493;51.938;7.626;2022-09-20T07:31:17;26.33;;;10.70;;
40781;SDS011;26493;51.938;7.626;2022-09-20T07:33:44;18.55;;;9.38;;
40781;SDS011;26493;51.938;7.626;2022-09-20T07:36:10;17.73;;;9.98;;
40781;SDS011;26493;51.938;7.626;2022-09-20T07:38:37;17.77;;;9.93;;
40781;SDS011;26493;51.938;7.626;2022-09-20T07:41:03;17.35;;;9.75;;
40781;SDS011;26493;51.938;7.626;2022-09-20T07:43:30;15.95;;;9.77;;
40781;SDS011;26493;51.938;7.626;2022-09-20T07:45:56;18.55;;;9.85;;
40781;SDS011;26493;51.938;7.626;2022-09-20T07:48:24;15.93;;;10.07;;
40781;SDS011;26493;51.938;7.626;2022-09-20T07:50:57;17.13;;;10.10;;
40781;SDS011;26493;51.938;7.626;2022-09-20T07:53:24;22.08;;;10.30;;
40781;SDS011;26493;51.938;7.626;2022-09-20T07:55:59;17.52;;;9.77;;
40781;SDS011;26493;51.938;7.626;2022-09-20T07:58:26;18.05;;;9.48;;
40781;SDS011;26493;51.938;7.626;2022-09-20T08:00:53;16.30;;;9.95;;
40781;SDS011;26493;51.938;7.626;2022-09-20T08:03:20;15.95;;;10.05;;
40781;SDS011;26493;51.938;7.626;2022-09-20T08:05:46;17.70;;;9.82;;
40781;SDS011;26493;51.938;7.626;2022-09-20T08:08:14;16.55;;;9.82;;
40781;SDS011;26493;51.938;7.626;2022-09-20T08:10:41;17.35;;;10.13;;
40781;SDS011;26493;51.938;7.626;2022-09-20T08:13:07;15.73;;;10.20;;
40781;SDS011;26493;51.938;7.626;2022-09-20T08:15:33;18.30;;;10.00;;
40781;SDS011;26493;51.938;7.626;2022-09-20T08:17:59;22.02;;;10.10;;
40781;SDS011;26493;51.938;7.626;2022-09-20T08:20:26;16.48;;;9.40;;
40781;SDS011;26493;51.938;7.626;2022-09-20T08:22:52;20.02;;;9.95;;
40781;SDS011;26493;51.938;7.626;2022-09-20T08:25:19;16.15;;;10.00;;
40781;SDS011;26493;51.938;7.626;2022-09-20T08:27:51;17.92;;;10.57;;
40781;SDS011;26493;51.938;7.626;2022-09-20T08:30:17;16.63;;;10.90;;
40781;SDS011;26493;51.938;7.626;2022-09-20T08:32:43;18.33;;;10.50;;
40781;SDS011;26493;51.938;7.626;2022-09-20T08:35:09;16.77;;;10.30;;
40781;SDS011;26493;51.938;7.626;2022-09-20T08:37:36;21.60;;;10.60;;
40781;SDS011;26493;51.938;7.626;2022-09-20T08:40:02;18.15;;;10.48;;
40781;SDS011;26493;51.938;7.626;2022-09-20T08:42:29;17.23;;;10.40;;
40781;SDS011;26493;51.938;7.626;2022-09-20T08:44:57;19.02;;;10.65;;
40781;SDS011;26493;51.938;7.626;2022-09-20T08:47:34;15.53;;;10.00;;
40781;SDS011;26493;51.938;7.626;2022-09-20T08:50:05;16.92;;;10.60;;
40781;SDS011;26493;51.938;7.626;2022-09-20T08:52:32;17.55;;;10.43;;
40781;SDS011;26493;51.938;7.626;2022-09-20T08:55:00;21.85;;;11.07;;
40781;SDS011;26493;51.938;7.626;2022-09-20T08:57:28;16.52;;;10.50;;
40781;SDS011;26493;51.938;7.626;2022-09-20T08:59:56;18.23;;;10.50;;
40781;SDS011;26493;51.938;7.626;2022-09-20T09:02:23;19.10;;;10.37;;
40781;SDS011;26493;51.938;7.626;2022-09-20T09:04:49;16.60;;;10.23;;
40781;SDS011;26493;51.938;7.626;2022-09-20T09:07:18;17.80;;;10.35;;
40781;SDS011;26493;51.938;7.626;2022-09-20T09:09:45;17.77;;;10.77;;
40781;SDS011;26493;51.938;7.626;2022-09-20T09:12:13;16.73;;;10.15;;
40781;SDS011;26493;51.938;7.626;2022-09-20T09:14:42;17.08;;;9.93;;
40781;SDS011;26493;51.938;7.626;2022-09-20T09:17:22;16.50;;;10.20;;
40781;SDS011;26493;51.938;7.626;2022-09-20T09:19:52;17.20;;;10.10;;
40781;SDS011;26493;51.938;7.626;2022-09-20T09:27:33;17.13;;;10.27;;
40781;SDS011;26493;51.938;7.626;2022-09-20T09:29:59;17.75;;;10.55;;
40781;SDS011;26493;51.938;7.626;2022-09-20T09:32:27;16.50;;;10.18;;
40781;SDS011;26493;51.938;7.626;2022-09-20T09:34:53;16.80;;;10.13;;
40781;SDS011;26493;51.938;7.626;2022-09-20T09:37:27;20.58;;;10.90;;
40781;SDS011;26493;51.938;7.626;2022-09-20T09:40:15;17.38;;;10.65;;
40781;SDS011;26493;51.938;7.626;2022-09-20T09:42:48;16.98;;;10.25;;
40781;SDS011;26493;51.938;7.626;2022-09-20T09:45:33;18.83;;;10.27;;
40781;SDS011;26493;51.938;7.626;2022-09-20T09:48:03;17.60;;;10.05;;
40781;SDS011;26493;51.938;7.626;2022-09-20T09:50:41;17.50;;;10.27;;
40781;SDS011;26493;51.938;7.626;2022-09-20T10:00:49;16.67;;;10.38;;
40781;SDS011;26493;51.938;7.626;2022-09-20T10:06:02;18.00;;;10.30;;
40781;SDS011;26493;51.938;7.626;2022-09-20T10:16:13;16.65;;;10.48;;
40781;SDS011;26493;51.938;7.626;2022-09-20T10:21:22;16.65;;;10.38;;
40781;SDS011;26493;51.938;7.626;2022-09-20T10:42:44;18.15;;;11.02;;
40781;SDS011;26493;51.938;7.626;2022-09-20T10:48:03;19.33;;;11.35;;
40781;SDS011;26493;51.938;7.626;2022-09-20T10:50:47;16.00;;;11.20;;
40781;SDS011;26493;51.938;7.626;2022-09-20T11:08:32;16.02;;;11.15;;
40781;SDS011;26493;51.938;7.626;2022-09-20T11:13:29;15.40;;;10.70;;
40781;SDS011;26493;51.938;7.626;2022-09-20T11:18:38;16.23;;;10.90;;
40781;SDS011;26493;51.938;7.626;2022-09-20T11:26:38;16.30;;;11.13;;
40781;SDS011;26493;51.938;7.626;2022-09-20T11:29:27;16.98;;;11.93;;
40781;SDS011;26493;51.938;7.626;2022-09-20T11:32:08;16.23;;;11.10;;
40781;SDS011;26493;51.938;7.626;2022-09-20T11:34:40;18.00;;;10.55;;
40781;SDS011;26493;51.938;7.626;2022-09-20T11:37:09;19.02;;;10.80;;
40781;SDS011;26493;51.938;7.626;2022-09-20T11:42:01;17.08;;;11.23;;
40781;SDS011;26493;51.938;7.626;2022-09-20T11:44:29;16.02;;;10.88;;
40781;SDS011;26493;51.938;7.626;2022-09-20T11:47:03;17.38;;;11.30;;
40781;SDS011;26493;51.938;7.626;2022-09-20T11:52:18;18.23;;;11.40;;
40781;SDS011;26493;51.938;7.626;2022-09-20T11:57:18;15.93;;;11.40;;
40781;SDS011;26493;51.938;7.626;2022-09-20T12:00:09;16.10;;;11.70;;
40781;SDS011;26493;51.938;7.626;2022-09-20T12:05:04;16.73;;;11.15;;
40781;SDS011;26493;51.938;7.626;2022-09-20T12:07:34;16.55;;;11.10;;
40781;SDS011;26493;51.938;7.626;2022-09-20T12:12:39;16.55;;;11.77;;
40781;SDS011;26493;51.938;7.626;2022-09-20T12:15:29;18.45;;;12.00;;
40781;SDS011;26493;51.938;7.626;2022-09-20T12:25:57;16.95;;;12.02;;
40781;SDS011;26493;51.938;7.626;2022-09-20T12:28:34;18.33;;;11.82;;
40781;SDS011;26493;51.938;7.626;2022-09-20T12:36:20;16.60;;;11.68;;
40781;SDS011;26493;51.938;7.626;2022-09-20T12:38:47;16.58;;;12.02;;
40781;SDS011;26493;51.938;7.626;2022-09-20T12:41:17;16.50;;;11.73;;
40781;SDS011;26493;51.938;7.626;2022-09-20T12:43:48;15.70;;;12.38;;
40781;SDS011;26493;51.938;7.626;2022-09-20T12:46:19;18.52;;;12.38;;
40781;SDS011;26493;51.938;7.626;2022-09-20T12:48:45;17.08;;;12.35;;
40781;SDS011;26493;51.938;7.626;2022-09-20T12:54:00;15.97;;;12.17;;
40781;SDS011;26493;51.938;7.626;2022-09-20T12:56:27;16.70;;;12.10;;
40781;SDS011;26493;51.938;7.626;2022-09-20T12:58:53;17.05;;;12.48;;
40781;SDS011;26493;51.938;7.626;2022-09-20T13:03:47;17.85;;;12.60;;
40781;SDS011;26493;51.938;7.626;2022-09-20T13:08:42;17.35;;;12.48;;
40781;SDS011;26493;51.938;7.626;2022-09-20T13:11:20;16.10;;;12.27;;
40781;SDS011;26493;51.938;7.626;2022-09-20T13:19:02;17.38;;;12.25;;
40781;SDS011;26493;51.938;7.626;2022-09-20T13:21:30;16.48;;;12.38;;
40781;SDS011;26493;51.938;7.626;2022-09-20T13:23:57;18.63;;;12.85;;
40781;SDS011;26493;51.938;7.626;2022-09-20T13:26:25;16.35;;;12.10;;
40781;SDS011;26493;51.938;7.626;2022-09-20T13:28:54;16.45;;;12.18;;
40781;SDS011;26493;51.938;7.626;2022-09-20T13:31:21;18.40;;;12.10;;
40781;SDS011;26493;51.938;7.626;2022-09-20T13:33:48;16.83;;;12.00;;
40781;SDS011;26493;51.938;7.626;2022-09-20T13:36:15;18.15;;;11.98;;
40781;SDS011;26493;51.938;7.626;2022-09-20T13:38:45;16.40;;;12.13;;
40781;SDS011;26493;51.938;7.626;2022-09-20T13:41:13;17.65;;;11.82;;
40781;SDS011;26493;51.938;7.626;2022-09-20T13:43:44;18.17;;;11.75;;
40781;SDS011;26493;51.938;7.626;2022-09-20T13:46:15;15.95;;;12.00;;
40781;SDS011;26493;51.938;7.626;2022-09-20T13:48:41;20.80;;;11.70;;
40781;SDS011;26493;51.938;7.626;2022-09-20T13:51:19;15.93;;;11.38;;
40781;SDS011;26493;51.938;7.626;2022-09-20T13:53:47;20.15;;;11.88;;
40781;SDS011;26493;51.938;7.626;2022-09-20T13:56:19;15.48;;;11.35;;
40781;SDS011;26493;51.938;7.626;2022-09-20T13:58:45;16.13;;;11.30;;
40781;SDS011;26493;51.938;7.626;2022-09-20T14:01:31;16.80;;;12.25;;
40781;SDS011;26493;51.938;7.626;2022-09-20T14:04:06;17.17;;;11.07;;
40781;SDS011;26493;51.938;7.626;2022-09-20T14:06:32;15.30;;;11.13;;
40781;SDS011;26493;51.938;7.626;2022-09-20T14:08:58;18.08;;;11.48;;
40781;SDS011;26493;51.938;7.626;2022-09-20T14:11:29;15.30;;;11.10;;
40781;SDS011;26493;51.938;7.626;2022-09-20T14:13:59;18.27;;;11.40;;
40781;SDS011;26493;51.938;7.626;2022-09-20T14:16:27;17.27;;;11.60;;
40781;SDS011;26493;51.938;7.626;2022-09-20T14:18:55;20.75;;;12.38;;
40781;SDS011;26493;51.938;7.626;2022-09-20T14:21:23;15.40;;;11.80;;
40781;SDS011;26493;51.938;7.626;2022-09-20T14:23:53;16.50;;;11.65;;
40781;SDS011;26493;51.938;7.626;2022-09-20T14:28:48;15.82;;;11.55;;
40781;SDS011;26493;51.938;7.626;2022-09-20T14:31:15;18.42;;;11.88;;
40781;SDS011;26493;51.938;7.626;2022-09-20T14:33:43;15.53;;;11.67;;
40781;SDS011;26493;51.938;7.626;2022-09-20T14:36:13;17.40;;;11.82;;
40781;SDS011;26493;51.938;7.626;2022-09-20T14:38:42;17.20;;;11.18;;
40781;SDS011;26493;51.938;7.626;2022-09-20T14:41:08;16.90;;;11.57;;
40781;SDS011;26493;51.938;7.626;2022-09-20T14:43:34;15.20;;;11.15;;
40781;SDS011;26493;51.938;7.626;2022-09-20T14:46:01;16.92;;;11.20;;
40781;SDS011;26493;51.938;7.626;2022-09-20T14:48:32;16.73;;;11.00;;
40781;SDS011;26493;51.938;7.626;2022-09-20T14:51:10;15.98;;;10.70;;
40781;SDS011;26493;51.938;7.626;2022-09-20T14:53:38;15.68;;;10.80;;
40781;SDS011;26493;51.938;7.626;2022-09-20T14:58:58;16.35;;;11.00;;
40781;SDS011;26493;51.938;7.626;2022-09-20T15:01:23;15.30;;;11.00;;
40781;SDS011;26493;51.938;7.626;2022-09-20T15:03:50;16.55;;;11.20;;
40781;SDS011;26493;51.938;7.626;2022-09-20T15:06:16;16.65;;;11.35;;
40781;SDS011;26493;51.938;7.626;2022-09-20T15:08:45;17.50;;;10.82;;
40781;SDS011;26493;51.938;7.626;2022-09-20T15:11:15;20.10;;;12.48;;
40781;SDS011;26493;51.938;7.626;2022-09-20T15:13:42;17.05;;;11.30;;
40781;SDS011;26493;51.938;7.626;2022-09-20T15:16:12;17.23;;;11.25;;
40781;SDS011;26493;51.938;7.626;2022-09-20T15:18:39;17.98;;;12.15;;
40781;SDS011;26493;51.938;7.626;2022-09-20T15:21:06;17.00;;;11.25;;
40781;SDS011;26493;51.938;7.626;2022-09-20T15:23:34;16.45;;;11.95;;
40781;SDS011;26493;51.938;7.626;2022-09-20T15:26:00;17.27;;;11.18;;
40781;SDS011;26493;51.938;7.626;2022-09-20T15:28:27;16.65;;;11.32;;
40781;SDS011;26493;51.938;7.626;2022-09-20T15:30:53;16.95;;;11.90;;
40781;SDS011;26493;51.938;7.626;2022-09-20T15:33:19;15.63;;;11.20;;
40781;SDS011;26493;51.938;7.626;2022-09-20T15:35:46;16.88;;;11.88;;
40781;SDS011;26493;51.938;7.626;2022-09-20T15:38:13;17.30;;;11.55;;
40781;SDS011;26493;51.938;7.626;2022-09-20T15:40:41;16.70;;;11.77;;
40781;SDS011;26493;51.938;7.626;2022-09-20T15:43:08;16.13;;;11.50;;
40781;SDS011;26493;51.938;7.626;2022-09-20T15:45:45;17.08;;;10.70;;
40781;SDS011;26493;51.938;7.626;2022-09-20T15:48:14;16.98;;;11.23;;
40781;SDS011;26493;51.938;7.626;2022-09-20T15:50:40;19.25;;;12.05;;
40781;SDS011;26493;51.938;7.626;2022-09-20T15:53:07;16.77;;;11.73;;
40781;SDS011;26493;51.938;7.626;2022-09-20T15:55:35;18.15;;;11.40;;
40781;SDS011;26493;51.938;7.626;2022-09-20T15:58:01;16.00;;;11.40;;
40781;SDS011;26493;51.938;7.626;2022-09-20T16:00:27;17.30;;;11.15;;
40781;SDS011;26493;51.938;7.626;2022-09-20T16:02:54;18.38;;;11.00;;
40781;SDS011;26493;51.938;7.626;2022-09-20T16:05:20;16.00;;;11.35;;
40781;SDS011;26493;51.938;7.626;2022-09-20T16:07:46;16.80;;;11.20;;
40781;SDS011;26493;51.938;7.626;2022-09-20T16:10:12;18.23;;;11.63;;
40781;SDS011;26493;51.938;7.626;2022-09-20T16:12:39;16.33;;;11.88;;
40781;SDS011;26493;51.938;7.626;2022-09-20T16:15:05;15.25;;;11.23;;
40781;SDS011;26493;51.938;7.626;2022-09-20T16:17:31;17.17;;;11.25;;
40781;SDS011;26493;51.938;7.626;2022-09-20T16:20:16;15.68;;;11.40;;
40781;SDS011;26493;51.938;7.626;2022-09-20T16:22:42;17.20;;;11.70;;
40781;SDS011;26493;51.938;7.626;2022-09-20T16:25:08;15.25;;;11.10;;
40781;SDS011;26493;51.938;7.626;2022-09-20T16:27:34;16.70;;;11.27;;
40781;SDS011;26493;51.938;7.626;2022-09-20T16:30:00;16.10;;;11.20;;
40781;SDS011;26493;51.938;7.626;2022-09-20T16:32:27;18.40;;;12.60;;
40781;SDS011;26493;51.938;7.626;2022-09-20T16:34:52;16.95;;;12.00;;
40781;SDS011;26493;51.938;7.626;2022-09-20T16:37:19;15.48;;;11.38;;
40781;SDS011;26493;51.938;7.626;2022-09-20T16:39:46;15.57;;;11.47;;
40781;SDS011;26493;51.938;7.626;2022-09-20T16:42:13;17.45;;;11.70;;
40781;SDS011;26493;51.938;7.626;2022-09-20T16:44:40;17.58;;;12.10;;
40781;SDS011;26493;51.938;7.626;2022-09-20T16:47:08;17.67;;;12.35;;
40781;SDS011;26493;51.938;7.626;2022-09-20T16:49:35;18.23;;;11.10;;
40781;SDS011;26493;51.938;7.626;2022-09-20T16:52:05;17.83;;;11.43;;
40781;SDS011;26493;51.938;7.626;2022-09-20T16:54:31;15.63;;;11.40;;
40781;SDS011;26493;51.938;7.626;2022-09-20T16:56:57;16.15;;;11.50;;
40781;SDS011;26493;51.938;7.626;2022-09-20T16:59:24;16.27;;;11.32;;
40781;SDS011;26493;51.938;7.626;2022-09-20T17:01:50;16.27;;;11.00;;
40781;SDS011;26493;51.938;7.626;2022-09-20T17:04:16;17.48;;;12.13;;
40781;SDS011;26493;51.938;7.626;2022-09-20T17:06:44;17.60;;;11.50;;
40781;SDS011;26493;51.938;7.626;2022-09-20T17:09:11;15.43;;;10.77;;
40781;SDS011;26493;51.938;7.626;2022-09-20T17:11:38;17.10;;;10.80;;
40781;SDS011;26493;51.938;7.626;2022-09-20T17:14:06;16.48;;;11.07;;
40781;SDS011;26493;51.938;7.626;2022-09-20T17:16:34;15.30;;;10.95;;
40781;SDS011;26493;51.938;7.626;2022-09-20T17:19:01;16.00;;;11.05;;
40781;SDS011;26493;51.938;7.626;2022-09-20T17:21:28;19.50;;;11.20;;
40781;SDS011;26493;51.938;7.626;2022-09-20T17:23:56;16.45;;;11.43;;
40781;SDS011;26493;51.938;7.626;2022-09-20T17:26:24;17.48;;;10.85;;
40781;SDS011;26493;51.938;7.626;2022-09-20T17:28:51;18.33;;;11.30;;
40781;SDS011;26493;51.938;7.626;2022-09-20T17:31:20;16.55;;;11.23;;
40781;SDS011;26493;51.938;7.626;2022-09-20T17:33:47;18.73;;;12.77;;
40781;SDS011;26493;51.938;7.626;2022-09-20T17:36:14;31.08;;;22.65;;
40781;SDS011;26493;51.938;7.626;2022-09-20T17:38:41;24.10;;;16.52;;
40781;SDS011;26493;51.938;7.626;2022-09-20T17:41:09;17.08;;;10.85;;
40781;SDS011;26493;51.938;7.626;2022-09-20T17:43:38;17.13;;;10.52;;
40781;SDS011;26493;51.938;7.626;2022-09-20T17:46:20;21.33;;;11.82;;
40781;SDS011;26493;51.938;7.626;2022-09-20T17:48:50;17.30;;;11.20;;
40781;SDS011;26493;51.938;7.626;2022-09-20T17:51:17;17.63;;;11.50;;
40781;SDS011;26493;51.938;7.626;2022-09-20T17:53:44;18.33;;;11.18;;
40781;SDS011;26493;51.938;7.626;2022-09-20T17:56:10;18.52;;;11.65;;
40781;SDS011;26493;51.938;7.626;2022-09-20T17:58:37;19.17;;;10.80;;
40781;SDS011;26493;51.938;7.626;2022-09-20T18:01:04;18.63;;;11.40;;
40781;SDS011;26493;51.938;7.626;2022-09-20T18:03:35;16.98;;;10.95;;
40781;SDS011;26493;51.938;7.626;2022-09-20T18:08:50;16.50;;;10.90;;
40781;SDS011;26493;51.938;7.626;2022-09-20T18:11:17;17.80;;;10.70;;
40781;SDS011;26493;51.938;7.626;2022-09-20T18:13:44;16.70;;;10.52;;
40781;SDS011;26493;51.938;7.626;2022-09-20T18:16:10;21.13;;;10.32;;
40781;SDS011;26493;51.938;7.626;2022-09-20T18:18:40;18.35;;;10.48;;
40781;SDS011;26493;51.938;7.626;2022-09-20T18:21:29;18.73;;;10.43;;
40781;SDS011;26493;51.938;7.626;2022-09-20T18:23:53;17.05;;;9.82;;
40781;SDS011;26493;51.938;7.626;2022-09-20T18:26:22;16.50;;;10.23;;
40781;SDS011;26493;51.938;7.626;2022-09-20T18:31:19;17.13;;;10.00;;
40781;SDS011;26493;51.938;7.626;2022-09-20T18:33:45;21.52;;;10.65;;
40781;SDS011;26493;51.938;7.626;2022-09-20T18:36:11;18.02;;;9.63;;
40781;SDS011;26493;51.938;7.626;2022-09-20T18:38:42;16.58;;;9.68;;
40781;SDS011;26493;51.938;7.626;2022-09-20T18:41:08;15.77;;;9.18;;
40781;SDS011;26493;51.938;7.626;2022-09-20T18:43:35;17.90;;;9.93;;
40781;SDS011;26493;51.938;7.626;2022-09-20T18:46:01;15.88;;;8.95;;
40781;SDS011;26493;51.938;7.626;2022-09-20T18:48:30;15.23;;;9.55;;
40781;SDS011;26493;51.938;7.626;2022-09-20T18:51:02;16.70;;;9.90;;
40781;SDS011;26493;51.938;7.626;2022-09-20T18:53:29;15.70;;;9.70;;
40781;SDS011;26493;51.938;7.626;2022-09-20T18:56:06;18.50;;;9.80;;
40781;SDS011;26493;51.938;7.626;2022-09-20T18:58:32;18.00;;;10.20;;
40781;SDS011;26493;51.938;7.626;2022-09-20T19:06:22;15.50;;;9.75;;
40781;SDS011;26493;51.938;7.626;2022-09-20T19:09:00;17.27;;;10.18;;
40781;SDS011;26493;51.938;7.626;2022-09-20T19:11:33;18.97;;;10.13;;
40781;SDS011;26493;51.938;7.626;2022-09-20T19:14:03;18.42;;;10.82;;
40781;SDS011;26493;51.938;7.626;2022-09-20T19:16:34;19.67;;;12.55;;
40781;SDS011;26493;51.938;7.626;2022-09-20T19:26:35;24.98;;;14.65;;
40781;SDS011;26493;51.938;7.626;2022-09-20T19:29:03;20.20;;;13.05;;
40781;SDS011;26493;51.938;7.626;2022-09-20T19:31:31;21.63;;;13.63;;
40781;SDS011;26493;51.938;7.626;2022-09-20T19:33:58;23.30;;;14.07;;
40781;SDS011;26493;51.938;7.626;2022-09-20T19:47:32;22.92;;;14.52;;
40781;SDS011;26493;51.938;7.626;2022-09-20T19:52:52;22.98;;;14.40;;
40781;SDS011;26493;51.938;7.626;2022-09-20T19:55:18;19.10;;;13.88;;
40781;SDS011;26493;51.938;7.626;2022-09-20T19:57:45;20.92;;;13.80;;
40781;SDS011;26493;51.938;7.626;2022-09-20T20:00:12;23.20;;;14.48;;
40781;SDS011;26493;51.938;7.626;2022-09-20T20:02:39;20.45;;;13.95;;
40781;SDS011;26493;51.938;7.626;2022-09-20T20:05:05;20.50;;;13.65;;
40781;SDS011;26493;51.938;7.626;2022-09-20T20:07:38;20.42;;;13.50;;
40781;SDS011;26493;51.938;7.626;2022-09-20T20:15:48;23.95;;;14.27;;
40781;SDS011;26493;51.938;7.626;2022-09-20T20:17:55;22.70;;;14.90;;
40781;SDS011;26493;51.938;7.626;2022-09-20T20:27:53;26.05;;;15.30;;
40781;SDS011;26493;51.938;7.626;2022-09-20T20:30:19;21.58;;;14.35;;
40781;SDS011;26493;51.938;7.626;2022-09-20T20:32:45;20.20;;;14.60;;